createdAt,value
2022-08-30T00:01:04.341Z,63.22
2022-08-30T00:03:48.806Z,63.24
2022-08-30T00:06:22.296Z,64.77
2022-08-30T00:08:52.710Z,62.94
2022-08-30T00:11:29.458Z,62.55
2022-08-30T00:13:59.511Z,65.02
2022-08-30T00:16:29.532Z,63.30
2022-08-30T00:18:59.548Z,62.79
2022-08-30T00:21:29.623Z,63.12
2022-08-30T00:23:59.534Z,63.64
2022-08-30T00:26:29.683Z,63.15
2022-08-30T00:29:00.194Z,62.61
2022-08-30T00:31:30.373Z,62.57
2022-08-30T00:34:00.447Z,63.73
2022-08-30T00:36:30.921Z,63.37
2022-08-30T00:39:01.123Z,63.40
2022-08-30T00:41:31.123Z,63.74
2022-08-30T00:44:01.061Z,63.17
2022-08-30T00:46:31.314Z,63.33
2022-08-30T00:49:06.002Z,62.50
2022-08-30T00:51:36.783Z,62.75
2022-08-30T00:54:07.487Z,63.07
2022-08-30T00:56:38.285Z,63.51
2022-08-30T00:59:10.770Z,62.59
2022-08-30T01:01:41.138Z,63.04
2022-08-30T01:04:16.149Z,62.30
2022-08-30T01:06:46.372Z,62.67
2022-08-30T01:09:16.824Z,62.64
2022-08-30T01:11:48.497Z,61.91
2022-08-30T01:14:19.619Z,61.58
2022-08-30T01:16:50.889Z,61.10
2022-08-30T01:19:49.433Z,60.71
2022-08-30T01:22:31.693Z,60.24
2022-08-30T01:25:04.242Z,60.75
2022-08-30T01:27:44.431Z,60.12
2022-08-30T01:30:16.043Z,60.03
2022-08-30T01:32:49.477Z,60.68
2022-08-30T01:35:21.919Z,60.52
2022-08-30T01:37:52.968Z,60.43
2022-08-30T01:40:23.596Z,60.33
2022-08-30T01:42:53.726Z,60.58
2022-08-30T01:45:24.035Z,60.02
2022-08-30T01:47:54.233Z,59.79
2022-08-30T01:50:24.377Z,59.78
2022-08-30T01:52:54.335Z,59.05
2022-08-30T01:55:24.513Z,59.51
2022-08-30T01:57:54.614Z,58.37
2022-08-30T02:00:24.718Z,59.03
2022-08-30T02:02:56.522Z,59.42
2022-08-30T02:05:27.706Z,58.97
2022-08-30T02:07:58.024Z,58.21
2022-08-30T02:10:28.874Z,57.88
2022-08-30T02:12:58.886Z,58.62
2022-08-30T02:15:29.018Z,59.78
2022-08-30T02:17:59.416Z,59.26
2022-08-30T02:20:31.470Z,59.12
2022-08-30T02:23:01.650Z,58.95
2022-08-30T02:25:31.634Z,58.50
2022-08-30T02:28:00.936Z,58.18
2022-08-30T02:30:31.372Z,58.39
2022-08-30T02:33:01.697Z,58.89
2022-08-30T02:35:31.764Z,58.14
2022-08-30T02:38:01.917Z,57.97
2022-08-30T02:40:32.304Z,56.20
2022-08-30T02:43:02.328Z,58.10
2022-08-30T02:45:32.435Z,57.46
2022-08-30T02:48:02.438Z,56.23
2022-08-30T02:50:32.690Z,58.11
2022-08-30T02:53:02.691Z,57.97
2022-08-30T02:55:32.761Z,57.66
2022-08-30T02:58:02.760Z,58.39
2022-08-30T03:00:33.412Z,58.16
2022-08-30T03:03:05.402Z,57.41
2022-08-30T03:05:39.633Z,57.49
2022-08-30T03:08:09.991Z,58.05
2022-08-30T03:10:40.561Z,56.40
2022-08-30T03:13:10.578Z,56.52
2022-08-30T03:15:41.837Z,57.23
2022-08-30T03:18:12.430Z,57.88
2022-08-30T03:20:46.119Z,57.10
2022-08-30T03:23:25.381Z,57.01
2022-08-30T03:25:55.964Z,56.50
2022-08-30T03:28:26.726Z,56.37
2022-08-30T03:30:57.234Z,56.79
2022-08-30T03:33:27.197Z,56.66
2022-08-30T03:35:58.134Z,56.56
2022-08-30T03:38:28.462Z,56.53
2022-08-30T03:40:58.474Z,57.05
2022-08-30T03:43:28.448Z,56.75
2022-08-30T03:45:59.974Z,57.23
2022-08-30T03:48:31.344Z,56.22
2022-08-30T03:51:02.122Z,56.40
2022-08-30T03:53:36.291Z,55.78
2022-08-30T03:56:06.509Z,56.46
2022-08-30T03:58:36.583Z,56.14
2022-08-30T04:01:06.661Z,56.13
2022-08-30T04:03:37.286Z,55.84
2022-08-30T04:06:07.049Z,55.71
2022-08-30T04:08:37.069Z,55.95
2022-08-30T04:11:08.495Z,56.25
2022-08-30T04:13:39.605Z,55.46
2022-08-30T04:16:09.946Z,56.14
2022-08-30T04:18:40.758Z,54.21
2022-08-30T04:21:13.983Z,55.42
2022-08-30T04:23:45.200Z,54.73
2022-08-30T04:26:15.924Z,55.89
2022-08-30T04:28:46.408Z,55.33
2022-08-30T04:31:20.281Z,55.55
2022-08-30T04:33:51.087Z,55.56
2022-08-30T04:36:22.350Z,54.94
2022-08-30T04:38:52.724Z,56.06
2022-08-30T04:41:25.548Z,55.49
2022-08-30T04:43:55.982Z,56.26
2022-08-30T04:46:26.466Z,56.00
2022-08-30T04:48:56.656Z,55.76
2022-08-30T04:51:26.780Z,54.20
2022-08-30T04:53:56.768Z,54.98
2022-08-30T04:56:26.630Z,56.01
2022-08-30T04:58:58.399Z,55.64
2022-08-30T05:01:32.127Z,55.35
2022-08-30T05:04:16.787Z,54.49
2022-08-30T05:06:47.043Z,55.08
2022-08-30T05:09:17.367Z,54.60
2022-08-30T05:11:47.661Z,55.13
2022-08-30T05:14:17.813Z,55.66
2022-08-30T05:16:48.607Z,55.26
2022-08-30T05:19:18.657Z,54.52
2022-08-30T05:21:48.558Z,54.97
2022-08-30T05:24:18.596Z,54.77
2022-08-30T05:29:23.375Z,54.86
2022-08-30T05:31:53.789Z,53.97
2022-08-30T05:34:23.743Z,54.71
2022-08-30T05:36:54.701Z,54.11
2022-08-30T05:39:24.969Z,54.09
2022-08-30T05:41:58.875Z,54.56
2022-08-30T05:44:28.925Z,54.63
2022-08-30T05:46:58.979Z,53.93
2022-08-30T05:49:28.914Z,54.27
2022-08-30T05:51:58.845Z,54.08
2022-08-30T05:54:28.980Z,52.56
2022-08-30T05:56:59.018Z,53.70
2022-08-30T05:59:29.137Z,54.37
2022-08-30T06:02:00.678Z,53.67
2022-08-30T06:04:31.352Z,53.33
2022-08-30T06:07:01.581Z,53.96
2022-08-30T06:09:31.784Z,53.46
2022-08-30T06:12:02.027Z,53.30
2022-08-30T06:14:32.228Z,53.11
2022-08-30T06:17:02.262Z,53.42
2022-08-30T06:19:32.198Z,52.94
2022-08-30T06:22:02.340Z,51.52
2022-08-30T06:24:56.437Z,52.66
2022-08-30T06:27:27.145Z,52.74
2022-08-30T06:29:57.200Z,52.88
2022-08-30T06:32:27.360Z,52.92
2022-08-30T06:34:57.465Z,50.32
2022-08-30T06:37:29.707Z,51.03
2022-08-30T06:40:02.205Z,52.31
2022-08-30T06:42:34.957Z,52.77
2022-08-30T06:45:10.976Z,52.73
2022-08-30T06:47:42.239Z,52.69
2022-08-30T06:50:17.815Z,52.11
2022-08-30T06:52:48.458Z,52.34
2022-08-30T06:55:20.115Z,52.82
2022-08-30T06:57:50.578Z,50.88
2022-08-30T07:00:21.535Z,51.33
2022-08-30T07:02:52.940Z,51.12
2022-08-30T07:05:25.566Z,51.54
2022-08-30T07:07:59.611Z,50.56
2022-08-30T07:10:30.607Z,50.73
2022-08-30T07:13:01.458Z,51.30
2022-08-30T07:15:32.015Z,50.70
2022-08-30T07:18:26.617Z,50.96
2022-08-30T07:20:57.574Z,50.78
2022-08-30T07:23:27.349Z,51.21
2022-08-30T07:25:58.250Z,50.82
2022-08-30T07:28:28.453Z,51.77
2022-08-30T07:30:58.739Z,51.32
2022-08-30T07:33:30.154Z,51.78
2022-08-30T07:36:01.434Z,51.03
2022-08-30T07:38:32.574Z,50.49
2022-08-30T07:41:03.260Z,50.49
2022-08-30T07:43:36.007Z,50.83
2022-08-30T07:46:09.510Z,51.29
2022-08-30T07:48:39.948Z,49.38
2022-08-30T07:51:20.267Z,51.59
2022-08-30T07:53:50.688Z,50.29
2022-08-30T07:56:20.823Z,50.69
2022-08-30T07:58:51.540Z,49.70
2022-08-30T08:01:23.841Z,49.82
2022-08-30T08:03:54.423Z,50.95
2022-08-30T08:06:25.873Z,49.99
2022-08-30T08:08:57.775Z,49.99
2022-08-30T08:11:33.290Z,50.35
2022-08-30T08:14:05.320Z,49.33
2022-08-30T08:16:38.426Z,50.22
2022-08-30T08:19:10.499Z,48.74
2022-08-30T08:21:41.790Z,49.28
2022-08-30T08:24:12.244Z,48.99
2022-08-30T08:26:45.472Z,48.48
2022-08-30T08:29:16.196Z,48.85
2022-08-30T08:31:51.369Z,49.37
2022-08-30T08:34:24.978Z,48.31
2022-08-30T08:36:56.167Z,49.55
2022-08-30T08:39:26.607Z,49.18
2022-08-30T08:42:04.171Z,49.90
2022-08-30T08:44:55.282Z,48.13
2022-08-30T08:47:46.136Z,50.23
2022-08-30T08:50:21.402Z,49.06
2022-08-30T08:53:45.247Z,49.93
2022-08-30T08:56:17.685Z,49.40
2022-08-30T08:58:49.244Z,51.26
2022-08-30T09:01:22.662Z,49.85
2022-08-30T09:03:54.368Z,50.28
2022-08-30T09:06:36.139Z,49.81
2022-08-30T09:09:07.210Z,50.21
2022-08-30T09:11:39.272Z,49.91
2022-08-30T09:14:16.590Z,51.02
2022-08-30T09:16:55.978Z,50.25
2022-08-30T09:19:46.722Z,51.42
2022-08-30T09:22:19.310Z,51.48
2022-08-30T09:24:54.410Z,51.76
2022-08-30T09:27:35.515Z,51.72
2022-08-30T09:30:19.706Z,52.23
2022-08-30T09:32:56.851Z,51.66
2022-08-30T09:35:37.134Z,51.68
2022-08-30T09:38:14.374Z,51.97
2022-08-30T09:40:47.839Z,52.21
2022-08-30T09:43:25.819Z,52.23
2022-08-30T09:46:02.204Z,52.42
2022-08-30T09:49:00.178Z,52.68
2022-08-30T09:52:00.607Z,52.70
2022-08-30T09:54:46.977Z,52.81
2022-08-30T09:57:34.154Z,52.87
2022-08-30T10:00:09.994Z,52.93
2022-08-30T10:02:55.966Z,52.92
2022-08-30T10:06:09.774Z,52.67
2022-08-30T10:09:06.945Z,53.05
2022-08-30T10:12:04.280Z,52.84
2022-08-30T10:14:47.364Z,52.20
2022-08-30T10:17:53.766Z,50.63
2022-08-30T10:20:34.931Z,50.11
2022-08-30T10:23:14.060Z,48.14
2022-08-30T10:26:02.140Z,48.92
2022-08-30T10:28:57.386Z,48.74
2022-08-30T10:31:37.225Z,47.89
2022-08-30T10:34:33.004Z,49.01
2022-08-30T10:37:27.261Z,49.59
2022-08-30T10:40:34.910Z,50.01
2022-08-30T10:43:15.708Z,50.79
2022-08-30T10:45:52.209Z,51.71
2022-08-30T10:48:47.491Z,52.18
2022-08-30T10:51:42.786Z,53.90
2022-08-30T10:54:44.178Z,53.91
2022-08-30T10:57:14.152Z,48.65
2022-08-30T10:59:50.072Z,49.29
2022-08-30T11:02:40.801Z,52.04
2022-08-30T11:05:51.210Z,53.24
2022-08-30T11:08:38.060Z,54.99
2022-08-30T11:11:43.784Z,55.33
2022-08-30T11:14:32.834Z,57.92
2022-08-30T11:17:06.910Z,57.62
2022-08-30T11:19:46.029Z,57.32
2022-08-30T11:22:41.354Z,56.99
2022-08-30T11:25:20.471Z,57.51
2022-08-30T11:27:57.088Z,57.40
2022-08-30T11:30:27.635Z,57.78
2022-08-30T11:33:07.945Z,56.69
2022-08-30T11:35:46.073Z,57.33
2022-08-30T11:38:27.662Z,56.51
2022-08-30T11:40:57.784Z,57.42
2022-08-30T11:43:37.787Z,57.08
2022-08-30T11:46:29.194Z,57.30
2022-08-30T11:49:36.718Z,57.33
2022-08-30T11:52:36.641Z,57.26
2022-08-30T11:55:24.136Z,58.48
2022-08-30T11:58:03.294Z,57.37
2022-08-30T12:00:51.454Z,57.37
2022-08-30T12:03:35.230Z,59.55
2022-08-30T12:06:08.900Z,56.85
2022-08-30T12:08:48.816Z,55.14
2022-08-30T12:11:18.943Z,58.59
2022-08-30T12:13:49.075Z,56.03
2022-08-30T12:17:07.202Z,55.60
2022-08-30T12:19:37.958Z,55.94
2022-08-30T12:22:17.313Z,56.07
2022-08-30T12:24:54.031Z,57.05
2022-08-30T12:27:32.843Z,56.85
2022-08-30T12:30:09.997Z,56.54
2022-08-30T12:32:51.479Z,56.61
2022-08-30T12:35:29.769Z,56.24
2022-08-30T12:38:07.482Z,55.63
2022-08-30T12:40:37.846Z,55.76
2022-08-30T12:43:20.787Z,55.56
2022-08-30T12:45:52.248Z,55.41
2022-08-30T12:48:24.217Z,55.94
2022-08-30T12:50:59.178Z,54.69
2022-08-30T12:53:33.909Z,54.78
2022-08-30T12:56:08.546Z,54.54
2022-08-30T12:58:43.089Z,55.00
2022-08-30T13:01:31.287Z,54.81
2022-08-30T13:04:01.516Z,55.37
2022-08-30T13:06:43.608Z,54.57
2022-08-30T13:09:26.313Z,55.17
2022-08-30T13:11:58.240Z,54.79
2022-08-30T13:14:42.388Z,55.18
2022-08-30T13:17:29.423Z,55.21
2022-08-30T13:20:10.481Z,55.54
2022-08-30T13:23:05.513Z,55.67
2022-08-30T13:25:37.004Z,56.03
2022-08-30T13:28:09.264Z,55.48
2022-08-30T13:30:40.792Z,55.73
2022-08-30T13:33:12.836Z,55.95
2022-08-30T13:35:44.100Z,56.03
2022-08-30T13:38:14.691Z,55.83
2022-08-30T13:40:45.785Z,55.81
2022-08-30T13:43:16.410Z,55.41
2022-08-30T13:45:46.746Z,55.92
2022-08-30T13:48:18.020Z,56.70
2022-08-30T13:50:55.073Z,56.71
2022-08-30T13:56:14.657Z,55.61
2022-08-30T13:58:46.104Z,55.88
2022-08-30T14:01:18.050Z,57.37
2022-08-30T14:07:11.860Z,56.26
2022-08-30T14:09:30.153Z,57.56
2022-08-30T14:12:00.810Z,57.87
2022-08-30T14:14:42.524Z,58.35
2022-08-30T14:17:14.288Z,58.20
2022-08-30T14:19:44.388Z,58.62
2022-08-30T14:22:15.173Z,59.20
2022-08-30T14:24:45.567Z,59.06
2022-08-30T14:27:15.796Z,59.27
2022-08-30T14:29:48.309Z,59.19
2022-08-30T14:32:18.957Z,59.25
2022-08-30T14:34:49.048Z,59.40
2022-08-30T14:37:21.647Z,59.37
2022-08-30T14:39:51.176Z,57.22
2022-08-30T14:42:21.592Z,59.00
2022-08-30T14:44:56.512Z,59.25
2022-08-30T14:47:29.416Z,58.41
2022-08-30T14:50:03.101Z,58.83
2022-08-30T14:52:34.409Z,58.82
2022-08-30T14:55:09.111Z,59.78
2022-08-30T14:57:40.746Z,59.80
2022-08-30T15:00:14.878Z,59.85
2022-08-30T15:02:45.516Z,60.29
2022-08-30T15:05:16.470Z,59.75
2022-08-30T15:07:51.733Z,59.56
2022-08-30T15:10:22.713Z,57.38
2022-08-30T15:12:57.279Z,58.03
2022-08-30T15:15:27.568Z,59.39
2022-08-30T15:17:57.368Z,59.55
2022-08-30T15:20:28.882Z,59.39
2022-08-30T15:22:59.928Z,59.83
2022-08-30T15:25:30.360Z,58.94
2022-08-30T15:28:00.628Z,58.94
2022-08-30T15:30:33.824Z,59.98
2022-08-30T15:33:05.095Z,59.01
2022-08-30T15:35:36.358Z,58.65
2022-08-30T15:38:07.065Z,59.02
2022-08-30T15:40:37.319Z,59.29
2022-08-30T15:43:08.186Z,59.47
2022-08-30T15:45:38.661Z,60.62
2022-08-30T15:48:08.969Z,59.77
2022-08-30T15:50:39.494Z,59.84
2022-08-30T15:53:10.979Z,59.22
2022-08-30T15:55:41.157Z,59.51
2022-08-30T15:58:11.280Z,59.99
2022-08-30T16:00:44.985Z,59.69
2022-08-30T16:03:15.907Z,60.38
2022-08-30T16:05:48.995Z,60.64
2022-08-30T16:08:20.373Z,60.16
2022-08-30T16:10:51.931Z,60.33
2022-08-30T16:13:23.621Z,59.47
2022-08-30T16:15:53.598Z,59.89
2022-08-30T16:18:23.587Z,59.29
2022-08-30T16:21:23.692Z,60.07
2022-08-30T16:24:01.059Z,60.98
2022-08-30T16:26:32.943Z,60.34
2022-08-30T16:29:05.018Z,60.37
2022-08-30T16:31:38.318Z,60.83
2022-08-30T16:34:10.229Z,60.88
2022-08-30T16:36:41.123Z,60.88
2022-08-30T16:39:14.082Z,61.85
2022-08-30T16:41:46.769Z,60.75
2022-08-30T16:44:20.063Z,61.03
2022-08-30T16:46:54.037Z,60.89
2022-08-30T16:49:26.190Z,59.85
2022-08-30T16:51:56.955Z,60.18
2022-08-30T16:54:27.677Z,59.90
2022-08-30T16:56:57.773Z,60.58
2022-08-30T16:59:27.909Z,60.97
2022-08-30T17:01:59.372Z,60.70
2022-08-30T17:04:29.880Z,61.05
2022-08-30T17:06:59.863Z,59.55
2022-08-30T17:09:29.820Z,59.40
2022-08-30T17:12:00.323Z,59.42
2022-08-30T17:14:34.261Z,58.92
2022-08-30T17:17:04.437Z,59.76
2022-08-30T17:19:39.385Z,59.13
2022-08-30T17:22:14.678Z,59.20
2022-08-30T17:24:44.933Z,59.26
2022-08-30T17:27:16.307Z,60.74
2022-08-30T17:29:46.608Z,60.63
2022-08-30T17:32:16.680Z,58.91
2022-08-30T17:34:47.944Z,58.51
2022-08-30T17:37:21.485Z,58.00
2022-08-30T17:39:52.269Z,58.15
2022-08-30T17:42:22.457Z,58.44
2022-08-30T17:44:52.633Z,58.54
2022-08-30T17:47:22.800Z,58.70
2022-08-30T17:49:55.853Z,58.55
2022-08-30T17:52:26.268Z,58.88
2022-08-30T17:54:56.441Z,59.46
2022-08-30T17:57:29.577Z,59.41
2022-08-30T18:00:01.273Z,60.00
2022-08-30T18:02:34.011Z,59.60
2022-08-30T18:05:04.698Z,59.39
2022-08-30T18:07:34.715Z,59.38
2022-08-30T18:10:05.549Z,60.06
2022-08-30T18:12:36.035Z,59.95
2022-08-30T18:15:12.567Z,59.65
2022-08-30T18:17:46.159Z,60.43
2022-08-30T18:20:19.271Z,60.15
2022-08-30T18:22:53.441Z,60.32
2022-08-30T18:25:24.278Z,61.06
2022-08-30T18:27:58.169Z,60.80
2022-08-30T18:30:34.654Z,61.01
2022-08-30T18:33:10.462Z,60.94
2022-08-30T18:35:47.284Z,60.89
2022-08-30T18:38:23.570Z,60.88
2022-08-30T18:41:05.988Z,60.01
2022-08-30T18:43:36.257Z,61.91
2022-08-30T18:46:12.379Z,61.14
2022-08-30T18:48:43.647Z,61.75
2022-08-30T18:51:16.281Z,61.68
2022-08-30T18:53:48.825Z,61.49
2022-08-30T18:56:19.823Z,60.71
2022-08-30T18:58:50.903Z,61.93
2022-08-30T19:01:23.051Z,61.95
2022-08-30T19:03:54.150Z,61.42
2022-08-30T19:06:24.277Z,61.74
2022-08-30T19:08:54.245Z,61.39
2022-08-30T19:11:24.825Z,61.54
2022-08-30T19:13:54.749Z,62.04
2022-08-30T19:16:25.737Z,61.99
2022-08-30T19:18:55.878Z,61.31
2022-08-30T19:21:25.899Z,61.82
2022-08-30T19:23:56.040Z,61.93
2022-08-30T19:26:27.551Z,61.50
2022-08-30T19:28:58.065Z,61.56
2022-08-30T19:31:33.128Z,61.98
2022-08-30T19:34:03.796Z,62.20
2022-08-30T19:36:34.562Z,61.36
2022-08-30T19:39:05.018Z,62.31
2022-08-30T19:41:35.167Z,61.28
2022-08-30T19:44:06.946Z,62.30
2022-08-30T19:46:37.770Z,61.54
2022-08-30T19:49:11.458Z,61.83
2022-08-30T19:51:46.505Z,61.96
2022-08-30T19:54:17.416Z,61.99
2022-08-30T19:56:48.239Z,61.87
2022-08-30T19:59:20.144Z,61.79
2022-08-30T20:01:50.884Z,62.29
2022-08-30T20:04:21.141Z,61.39
2022-08-30T20:06:53.360Z,61.50
2022-08-30T20:09:23.572Z,61.43
2022-08-30T20:11:53.808Z,61.61
2022-08-30T20:14:25.662Z,61.73
2022-08-30T20:16:55.921Z,61.59
2022-08-30T20:19:27.829Z,62.40
2022-08-30T20:22:07.692Z,62.58
2022-08-30T20:24:39.459Z,62.81
2022-08-30T20:27:14.442Z,62.59
2022-08-30T20:29:44.551Z,62.67
2022-08-30T20:32:14.710Z,62.08
2022-08-30T20:34:44.696Z,61.94
2022-08-30T20:37:16.809Z,63.93
2022-08-30T20:39:47.349Z,62.69
2022-08-30T20:42:18.991Z,62.59
2022-08-30T20:44:49.286Z,62.08
2022-08-30T20:47:19.635Z,61.79
2022-08-30T20:49:49.931Z,62.58
2022-08-30T20:52:20.741Z,62.17
2022-08-30T20:54:54.719Z,62.56
2022-08-30T20:57:25.521Z,62.75
2022-08-30T20:59:55.831Z,61.94
2022-08-30T21:02:30.477Z,62.08
2022-08-30T21:05:01.053Z,62.46
2022-08-30T21:07:31.654Z,62.84
2022-08-30T21:10:01.748Z,62.33
2022-08-30T21:12:32.221Z,62.16
2022-08-30T21:15:15.350Z,63.07
2022-08-30T21:17:53.350Z,62.46
2022-08-30T21:20:23.829Z,62.62
2022-08-30T21:22:53.884Z,62.23
2022-08-30T21:25:23.880Z,62.53
2022-08-30T21:27:55.154Z,62.24
2022-08-30T21:30:25.918Z,61.83
2022-08-30T21:33:00.028Z,61.97
2022-08-30T21:35:49.840Z,61.72
2022-08-30T21:38:21.169Z,62.69
2022-08-30T21:40:51.916Z,62.00
2022-08-30T21:43:22.174Z,62.58
2022-08-30T21:45:54.735Z,61.92
2022-08-30T21:48:25.280Z,63.14
2022-08-30T21:50:56.587Z,61.87
2022-08-30T21:53:27.458Z,63.01
2022-08-30T21:55:57.599Z,62.57
2022-08-30T21:58:29.882Z,62.53
2022-08-30T22:00:59.847Z,62.26
2022-08-30T22:03:30.058Z,62.88
2022-08-30T22:06:00.491Z,62.81
2022-08-30T22:08:30.581Z,62.53
2022-08-30T22:11:01.211Z,62.78
2022-08-30T22:13:31.828Z,62.32
2022-08-30T22:16:01.157Z,62.80
2022-08-30T22:18:31.102Z,61.86
2022-08-30T22:21:01.540Z,62.80
2022-08-30T22:23:34.999Z,61.83
2022-08-30T22:26:06.679Z,62.14
2022-08-30T22:28:38.009Z,61.77
2022-08-30T22:31:11.595Z,62.24
2022-08-30T22:33:42.621Z,61.97
2022-08-30T22:36:20.131Z,62.12
2022-08-30T22:38:52.595Z,61.92
2022-08-30T22:41:25.672Z,61.75
2022-08-30T22:44:01.507Z,62.45
2022-08-30T22:46:34.519Z,62.57
2022-08-30T22:49:05.665Z,61.96
2022-08-30T22:51:36.577Z,61.74
2022-08-30T22:54:08.552Z,61.87
2022-08-30T22:56:39.745Z,61.58
2022-08-30T22:59:09.949Z,61.53
2022-08-30T23:01:44.428Z,61.38
2022-08-30T23:04:14.378Z,62.31
2022-08-30T23:06:49.597Z,62.76
2022-08-30T23:09:20.588Z,61.62
2022-08-30T23:11:50.434Z,61.49
2022-08-30T23:14:20.471Z,61.69
2022-08-30T23:16:50.709Z,62.14
2022-08-30T23:19:20.746Z,61.72
2022-08-30T23:21:50.758Z,62.29
2022-08-30T23:24:38.926Z,61.88
2022-08-30T23:27:27.260Z,60.94
2022-08-30T23:30:15.586Z,60.81
2022-08-30T23:33:04.247Z,60.80
2022-08-30T23:35:52.515Z,60.68
2022-08-30T23:38:41.700Z,61.18
2022-08-30T23:41:33.966Z,60.41
2022-08-30T23:44:23.052Z,61.10
2022-08-30T23:47:11.392Z,61.11
2022-08-30T23:49:59.614Z,61.56
2022-08-30T23:52:47.555Z,61.19
2022-08-30T23:55:35.488Z,60.72
2022-08-30T23:58:23.588Z,60.73
